Terminal Aerodrome Forecast
Issued by NWS

Home | Current Version | Previous Version | Text Only | Print | Product List | Glossary On
Versions: 1 2 3 4 5 6 7 8 9 10 11 12
280
FTUS45 KVEF 160536
TAFEED
TAF
KEED 160536Z 1606/1706 24006KT P6SM BKN200
     FM161300 VRB05KT P6SM SCT150 BKN200
     FM162200 34007KT P6SM OVC150
     FM170500 33010KT P6SM BKN120=

USA.gov is the U.S. government's official web portal to all federal, state and local government web resources and services.